Time;durP1;ratioP1;P1;durP2;ratioP2;P2;SDS_P1;SDS_P2;PMS_P1;PMS_P2;Temp;Humidity;BMP_temperature;BMP_pressure;BME280_temperature;BME280_humidity;BME280_pressure;Samples;Min_cycle;Max_cycle;Signal;HPM_P1;HPM_P2
2021/11/25 00:00:01;;;;;;;4.80;4.32;;;;;;;;;;5061689;28;20308;-73
2021/11/25 00:02:28;;;;;;;5.43;3.75;;;;;;;;;;5059459;28;20202;-73
2021/11/25 00:04:55;;;;;;;4.25;3.85;;;;;;;;;;5053980;28;20685;-72
2021/11/25 00:07:22;;;;;;;6.93;4.57;;;;;;;;;;5058311;28;20206;-73
2021/11/25 00:09:50;;;;;;;4.95;4.00;;;;;;;;;;5066087;28;20198;-72
2021/11/25 00:12:19;;;;;;;4.70;4.30;;;;;;;;;;5058225;28;20203;-74
2021/11/25 00:14:46;;;;;;;5.05;4.13;;;;;;;;;;5054531;28;20634;-73
2021/11/25 00:17:13;;;;;;;5.10;4.60;;;;;;;;;;5055972;28;20213;-72
2021/11/25 00:19:40;;;;;;;6.25;4.18;;;;;;;;;;5057314;28;20252;-73
2021/11/25 00:22:07;;;;;;;4.93;4.18;;;;;;;;;;5054789;28;20206;-72
2021/11/25 00:24:34;;;;;;;5.07;4.10;;;;;;;;;;5059450;28;20562;-73
2021/11/25 00:27:01;;;;;;;4.65;4.20;;;;;;;;;;5055294;28;20203;-73
2021/11/25 00:29:30;;;;;;;6.65;4.80;;;;;;;;;;5069603;28;20658;-72
2021/11/25 00:31:57;;;;;;;6.90;4.00;;;;;;;;;;5060012;28;20331;-73
2021/11/25 00:34:24;;;;;;;5.88;4.10;;;;;;;;;;5059147;28;20673;-73
2021/11/25 00:36:51;;;;;;;4.18;3.50;;;;;;;;;;5062201;28;20214;-73
2021/11/25 00:39:18;;;;;;;5.30;4.68;;;;;;;;;;5059329;28;20225;-73
2021/11/25 00:41:47;;;;;;;4.53;3.90;;;;;;;;;;5065093;28;20202;-73
2021/11/25 00:44:14;;;;;;;4.38;4.03;;;;;;;;;;5059655;28;20213;-73
2021/11/25 00:46:42;;;;;;;4.68;4.25;;;;;;;;;;5056145;28;20198;-72
2021/11/25 00:49:10;;;;;;;4.28;3.92;;;;;;;;;;5057384;28;20535;-73
2021/11/25 00:51:37;;;;;;;6.38;4.55;;;;;;;;;;5059492;28;20569;-73
2021/11/25 00:54:04;;;;;;;6.45;4.57;;;;;;;;;;5053116;28;20207;-74
2021/11/25 00:56:31;;;;;;;5.40;4.30;;;;;;;;;;5058951;28;20210;-73
2021/11/25 00:58:58;;;;;;;4.97;4.43;;;;;;;;;;5051152;28;20628;-73
2021/11/25 01:01:25;;;;;;;4.45;4.05;;;;;;;;;;5057790;28;20202;-72
2021/11/25 01:03:54;;;;;;;5.13;3.90;;;;;;;;;;5054938;28;20281;-74
2021/11/25 01:06:21;;;;;;;3.92;3.45;;;;;;;;;;5061546;28;20209;-73
2021/11/25 01:08:48;;;;;;;5.03;4.43;;;;;;;;;;5060648;28;20193;-72
2021/11/25 01:11:15;;;;;;;4.38;3.97;;;;;;;;;;5055114;28;20601;-72
2021/11/25 01:13:42;;;;;;;4.47;3.45;;;;;;;;;;5052504;28;20198;-73
2021/11/25 01:16:09;;;;;;;4.80;4.30;;;;;;;;;;5056642;28;20191;-73
2021/11/25 01:18:36;;;;;;;4.38;3.97;;;;;;;;;;5052369;28;20878;-73
2021/11/25 01:21:05;;;;;;;8.10;5.50;;;;;;;;;;5052507;28;20206;-74
2021/11/25 01:23:32;;;;;;;4.82;4.38;;;;;;;;;;5060744;28;20198;-73
2021/11/25 01:25:59;;;;;;;5.30;4.25;;;;;;;;;;5062316;28;20206;-74
2021/11/25 01:28:27;;;;;;;4.10;3.75;;;;;;;;;;5062983;28;20201;-73
2021/11/25 01:30:55;;;;;;;4.60;4.20;;;;;;;;;;5061913;28;20218;-73
2021/11/25 01:33:23;;;;;;;5.00;4.60;;;;;;;;;;5057565;28;20194;-72
2021/11/25 01:35:51;;;;;;;4.32;3.92;;;;;;;;;;5056184;28;20646;-74
2021/11/25 01:38:19;;;;;;;6.75;4.60;;;;;;;;;;5064513;28;20209;-72
2021/11/25 01:40:47;;;;;;;6.38;4.63;;;;;;;;;;5058306;28;20222;-72
2021/11/25 01:43:14;;;;;;;3.90;3.50;;;;;;;;;;5054199;28;20646;-72
2021/11/25 01:45:41;;;;;;;9.93;5.20;;;;;;;;;;5056769;28;20302;-74
2021/11/25 01:48:08;;;;;;;5.63;4.72;;;;;;;;;;5057468;28;20203;-73
2021/11/25 01:50:36;;;;;;;4.90;4.40;;;;;;;;;;5064037;28;20195;-74
2021/11/25 01:53:04;;;;;;;4.40;3.65;;;;;;;;;;5063044;28;20281;-73
2021/11/25 01:55:32;;;;;;;4.53;4.07;;;;;;;;;;5057100;28;20225;-73
2021/11/25 01:57:59;;;;;;;4.75;4.35;;;;;;;;;;5053983;28;20206;-73
2021/11/25 02:00:28;;;;;;;6.82;4.90;;;;;;;;;;5058277;28;20223;-73
2021/11/25 02:02:55;;;;;;;4.95;3.95;;;;;;;;;;5057676;28;20210;-73
2021/11/25 02:05:22;;;;;;;5.00;4.60;;;;;;;;;;5056436;28;20218;-73
2021/11/25 02:07:50;;;;;;;4.95;4.55;;;;;;;;;;5054566;28;20703;-74
2021/11/25 02:10:17;;;;;;;6.15;4.65;;;;;;;;;;5062791;28;20202;-73
2021/11/25 02:12:46;;;;;;;5.32;4.43;;;;;;;;;;5070508;28;20198;-73
2021/11/25 02:15:15;;;;;;;5.40;4.85;;;;;;;;;;5059935;28;20203;-72
2021/11/25 02:17:42;;;;;;;4.80;4.30;;;;;;;;;;5062289;28;20673;-73
2021/11/25 02:20:10;;;;;;;4.72;4.28;;;;;;;;;;5059983;28;20206;-72
2021/11/25 02:22:39;;;;;;;6.53;3.67;;;;;;;;;;5055296;28;20464;-74
2021/11/25 02:25:07;;;;;;;4.55;4.07;;;;;;;;;;5061080;28;20207;-73
2021/11/25 02:27:34;;;;;;;4.40;4.00;;;;;;;;;;5057190;28;20203;-72
2021/11/25 02:30:01;;;;;;;5.50;4.13;;;;;;;;;;5055387;28;20566;-71
2021/11/25 02:32:29;;;;;;;3.60;3.30;;;;;;;;;;5053398;28;20206;-72
2021/11/25 02:34:56;;;;;;;4.70;4.30;;;;;;;;;;5055012;28;20186;-73
2021/11/25 02:37:23;;;;;;;5.25;4.40;;;;;;;;;;5061509;28;20198;-73
2021/11/25 02:39:52;;;;;;;5.03;4.53;;;;;;;;;;5054007;28;20218;-72
2021/11/25 02:42:19;;;;;;;4.97;4.57;;;;;;;;;;5053769;28;20206;-72
2021/11/25 02:44:46;;;;;;;4.28;3.88;;;;;;;;;;5055491;28;20194;-72
2021/11/25 02:47:13;;;;;;;4.40;4.00;;;;;;;;;;5056811;28;20608;-72
2021/11/25 02:49:40;;;;;;;4.60;4.18;;;;;;;;;;5060898;28;20249;-71
2021/11/25 02:52:07;;;;;;;4.95;4.57;;;;;;;;;;5064466;28;20209;-72
2021/11/25 02:54:34;;;;;;;4.53;4.13;;;;;;;;;;5061540;28;20202;-72
2021/11/25 02:57:03;;;;;;;4.22;3.90;;;;;;;;;;5070155;28;20538;-72
2021/11/25 02:59:30;;;;;;;4.65;3.90;;;;;;;;;;5052945;28;20214;-72
2021/11/25 03:01:57;;;;;;;4.38;3.97;;;;;;;;;;5064774;28;20287;-71
2021/11/25 03:04:24;;;;;;;4.93;4.20;;;;;;;;;;5067718;28;20574;-72
2021/11/25 03:06:51;;;;;;;4.38;3.97;;;;;;;;;;5053684;28;20202;-72
2021/11/25 03:09:19;;;;;;;5.18;4.68;;;;;;;;;;5061222;28;20202;-72
2021/11/25 03:11:46;;;;;;;4.68;4.13;;;;;;;;;;5062557;28;20186;-72
2021/11/25 03:14:14;;;;;;;4.72;4.22;;;;;;;;;;5061890;28;20198;-73
2021/11/25 03:16:41;;;;;;;4.05;3.65;;;;;;;;;;5065092;28;20209;-74
2021/11/25 03:19:08;;;;;;;4.20;3.80;;;;;;;;;;5060906;28;20199;-75
2021/11/25 03:21:35;;;;;;;5.40;4.28;;;;;;;;;;5055686;28;20611;-75
2021/11/25 03:24:02;;;;;;;5.38;4.88;;;;;;;;;;5062200;28;20585;-76
2021/11/25 03:26:29;;;;;;;4.25;3.85;;;;;;;;;;5060191;28;20198;-75
2021/11/25 03:28:59;;;;;;;3.85;3.38;;;;;;;;;;5052363;28;20210;-75
2021/11/25 03:31:29;;;;;;;4.40;4.00;;;;;;;;;;5059608;28;20194;-75
2021/11/25 03:33:57;;;;;;;4.03;3.63;;;;;;;;;;5071452;28;20201;-75
2021/11/25 03:36:24;;;;;;;3.83;3.53;;;;;;;;;;5064953;28;20201;-75
2021/11/25 03:38:52;;;;;;;4.90;4.40;;;;;;;;;;5059887;28;20217;-75
2021/11/25 03:41:19;;;;;;;4.93;3.90;;;;;;;;;;5058950;28;20226;-75
2021/11/25 03:43:46;;;;;;;5.40;4.68;;;;;;;;;;5056964;28;20647;-75
2021/11/25 03:46:14;;;;;;;3.95;3.30;;;;;;;;;;5057700;28;20193;-75
2021/11/25 03:48:43;;;;;;;4.80;4.40;;;;;;;;;;5058955;28;20194;-75
2021/11/25 03:51:11;;;;;;;4.80;4.00;;;;;;;;;;5053131;28;20199;-75
2021/11/25 03:53:38;;;;;;;4.50;4.10;;;;;;;;;;5063205;28;20194;-75
2021/11/25 03:56:06;;;;;;;4.07;3.78;;;;;;;;;;5057578;28;20673;-74
2021/11/25 03:58:33;;;;;;;4.20;3.70;;;;;;;;;;5059343;28;20198;-74
2021/11/25 04:01:00;;;;;;;5.18;4.68;;;;;;;;;;5065373;28;20228;-74
2021/11/25 04:03:27;;;;;;;4.25;3.85;;;;;;;;;;5068613;28;20276;-74
2021/11/25 04:05:56;;;;;;;4.65;4.20;;;;;;;;;;5057523;28;20356;-74
2021/11/25 04:08:23;;;;;;;4.55;4.00;;;;;;;;;;5060278;28;20201;-73
2021/11/25 04:10:50;;;;;;;4.22;3.85;;;;;;;;;;5059176;28;20202;-73
2021/11/25 04:13:17;;;;;;;3.58;3.28;;;;;;;;;;5071372;28;20191;-74
2021/11/25 04:15:44;;;;;;;3.95;3.58;;;;;;;;;;5061577;28;20195;-74
2021/11/25 04:18:11;;;;;;;4.07;3.67;;;;;;;;;;5057735;28;20194;-74
2021/11/25 04:20:38;;;;;;;3.92;3.17;;;;;;;;;;5059250;28;20214;-74
2021/11/25 04:23:08;;;;;;;3.95;3.42;;;;;;;;;;5063699;28;20203;-73
2021/11/25 04:25:35;;;;;;;4.18;3.80;;;;;;;;;;5060002;28;20581;-74
2021/11/25 04:28:02;;;;;;;4.40;4.00;;;;;;;;;;5056688;28;20199;-74
2021/11/25 04:30:48;;;;;;;3.00;2.65;;;;;;;;;;5067175;28;20202;-74
2021/11/25 04:36:00;;;;;;;3.25;2.95;;;;;;;;;;5052227;28;20209;-74
2021/11/25 04:38:29;;;;;;;5.75;3.70;;;;;;;;;;5050451;28;20190;-74
2021/11/25 04:40:57;;;;;;;4.82;4.10;;;;;;;;;;5054846;28;20250;-74
2021/11/25 04:43:25;;;;;;;3.83;3.53;;;;;;;;;;5054990;28;20213;-74
2021/11/25 04:45:53;;;;;;;4.53;4.13;;;;;;;;;;5059988;28;20198;-75
2021/11/25 04:48:21;;;;;;;4.05;3.35;;;;;;;;;;5055743;28;20214;-75
2021/11/25 04:50:48;;;;;;;3.88;3.53;;;;;;;;;;5054068;28;20195;-75
2021/11/25 04:53:15;;;;;;;3.65;2.92;;;;;;;;;;5061251;28;20696;-74
2021/11/25 04:55:44;;;;;;;3.30;3.00;;;;;;;;;;5058831;28;20585;-74
2021/11/25 04:58:12;;;;;;;4.78;3.72;;;;;;;;;;5053120;28;20214;-74
2021/11/25 05:00:39;;;;;;;4.28;3.88;;;;;;;;;;5060490;28;20217;-74
2021/11/25 05:03:06;;;;;;;5.57;4.20;;;;;;;;;;5059247;28;20206;-74
2021/11/25 05:05:33;;;;;;;4.10;3.65;;;;;;;;;;5065897;28;20198;-74
2021/11/25 05:08:00;;;;;;;4.03;3.65;;;;;;;;;;5061060;28;20657;-75
2021/11/25 05:10:27;;;;;;;3.88;3.58;;;;;;;;;;5056914;28;20194;-74
2021/11/25 05:12:56;;;;;;;6.13;3.55;;;;;;;;;;5061437;28;20201;-75
2021/11/25 05:15:23;;;;;;;3.58;3.28;;;;;;;;;;5061363;28;20209;-75
2021/11/25 05:17:51;;;;;;;3.55;3.25;;;;;;;;;;5055404;28;20202;-75
2021/11/25 05:20:19;;;;;;;4.35;3.85;;;;;;;;;;5055580;28;20799;-75
2021/11/25 05:22:46;;;;;;;4.00;3.47;;;;;;;;;;5060620;28;20197;-75
2021/11/25 05:25:14;;;;;;;3.70;3.40;;;;;;;;;;5066309;28;20592;-76
2021/11/25 05:27:41;;;;;;;4.65;4.25;;;;;;;;;;5059027;28;20646;-75
2021/11/25 05:30:11;;;;;;;4.47;3.35;;;;;;;;;;5060765;28;20617;-75
2021/11/25 05:32:38;;;;;;;4.72;4.32;;;;;;;;;;5067463;28;20194;-75
2021/11/25 05:35:07;;;;;;;4.70;3.53;;;;;;;;;;5055708;28;20206;-75
2021/11/25 05:37:34;;;;;;;3.80;3.15;;;;;;;;;;5059273;28;20202;-75
2021/11/25 05:40:02;;;;;;;4.25;3.85;;;;;;;;;;5068507;28;20190;-74
2021/11/25 05:42:30;;;;;;;11.40;5.07;;;;;;;;;;5054825;28;20257;-75
2021/11/25 05:44:57;;;;;;;5.97;4.70;;;;;;;;;;5055766;28;20207;-75
2021/11/25 05:47:26;;;;;;;4.25;3.85;;;;;;;;;;5070483;28;20203;-75
2021/11/25 05:49:53;;;;;;;4.43;3.28;;;;;;;;;;5067309;28;20209;-75
2021/11/25 05:52:20;;;;;;;4.30;3.90;;;;;;;;;;5066144;28;20201;-75
2021/11/25 05:54:48;;;;;;;5.03;4.50;;;;;;;;;;5056960;28;20195;-75
2021/11/25 05:57:15;;;;;;;4.30;3.28;;;;;;;;;;5058642;28;20689;-75
2021/11/25 05:59:42;;;;;;;4.43;4.03;;;;;;;;;;5060035;28;20274;-75
2021/11/25 06:02:11;;;;;;;7.38;5.00;;;;;;;;;;5061487;28;20230;-75
2021/11/25 06:04:39;;;;;;;4.05;3.65;;;;;;;;;;5059977;28;20221;-75
2021/11/25 06:07:06;;;;;;;4.70;4.30;;;;;;;;;;5064151;28;20201;-75
2021/11/25 06:09:33;;;;;;;4.10;3.70;;;;;;;;;;5054931;28;20643;-75
2021/11/25 06:12:00;;;;;;;5.72;4.20;;;;;;;;;;5062735;28;20256;-76
2021/11/25 06:14:27;;;;;;;5.25;4.80;;;;;;;;;;5060620;28;20199;-75
2021/11/25 06:16:56;;;;;;;4.78;4.15;;;;;;;;;;5054015;28;20206;-75
2021/11/25 06:19:23;;;;;;;5.57;4.50;;;;;;;;;;5057230;28;20198;-75
2021/11/25 06:21:51;;;;;;;5.63;3.85;;;;;;;;;;5062872;28;20343;-74
2021/11/25 06:24:18;;;;;;;6.32;3.70;;;;;;;;;;5061482;28;20265;-74
2021/11/25 06:26:49;;;;;;;4.03;3.60;;;;;;;;;;5063441;28;20649;-75
2021/11/25 06:29:16;;;;;;;5.30;4.55;;;;;;;;;;5062158;28;20654;-76
2021/11/25 06:31:43;;;;;;;5.93;4.47;;;;;;;;;;5055898;28;20654;-76
2021/11/25 06:34:11;;;;;;;9.75;5.05;;;;;;;;;;5060993;28;20199;-76
2021/11/25 06:36:38;;;;;;;5.63;4.40;;;;;;;;;;5064139;28;20285;-75
2021/11/25 06:39:06;;;;;;;5.00;4.53;;;;;;;;;;5058755;28;20227;-75
2021/11/25 06:41:34;;;;;;;3.60;3.30;;;;;;;;;;5064536;28;20225;-75
2021/11/25 06:44:01;;;;;;;5.03;4.38;;;;;;;;;;5056472;28;20194;-75
2021/11/25 06:46:28;;;;;;;4.35;3.95;;;;;;;;;;5055558;28;20195;-75
2021/11/25 06:48:55;;;;;;;6.15;4.63;;;;;;;;;;5061394;28;20198;-75
2021/11/25 06:51:22;;;;;;;5.75;4.85;;;;;;;;;;5070628;28;20565;-74
2021/11/25 06:53:49;;;;;;;6.07;4.50;;;;;;;;;;5056691;28;20198;-74
2021/11/25 06:56:17;;;;;;;5.80;4.93;;;;;;;;;;5063338;28;20198;-74
2021/11/25 06:58:44;;;;;;;6.78;4.78;;;;;;;;;;5071625;28;20190;-75
2021/11/25 07:01:12;;;;;;;5.55;4.70;;;;;;;;;;5059252;28;20257;-76
2021/11/25 07:03:39;;;;;;;5.00;4.43;;;;;;;;;;5058528;28;20213;-75
2021/11/25 07:06:06;;;;;;;6.22;5.63;;;;;;;;;;5052879;28;20199;-75
2021/11/25 07:08:33;;;;;;;6.20;5.03;;;;;;;;;;5054344;28;20190;-75
2021/11/25 07:11:00;;;;;;;6.10;4.65;;;;;;;;;;5060970;28;20195;-75
2021/11/25 07:13:29;;;;;;;5.10;4.70;;;;;;;;;;5058892;28;20199;-74
2021/11/25 07:15:56;;;;;;;5.60;4.78;;;;;;;;;;5062747;28;20191;-74
2021/11/25 07:18:23;;;;;;;8.70;4.82;;;;;;;;;;5059127;28;20201;-74
2021/11/25 07:20:50;;;;;;;6.95;5.72;;;;;;;;;;5066251;28;20688;-74
2021/11/25 07:23:18;;;;;;;5.60;4.97;;;;;;;;;;5060002;28;20203;-75
2021/11/25 07:25:45;;;;;;;7.90;5.18;;;;;;;;;;5061032;28;20204;-75
2021/11/25 07:28:12;;;;;;;6.68;4.35;;;;;;;;;;5052799;28;20286;-76
2021/11/25 07:30:40;;;;;;;5.70;5.00;;;;;;;;;;5055287;28;20189;-76
2021/11/25 07:33:07;;;;;;;6.85;5.78;;;;;;;;;;5059403;28;20625;-76
2021/11/25 07:35:34;;;;;;;5.20;4.80;;;;;;;;;;5057791;28;20659;-76
2021/11/25 07:38:03;;;;;;;5.97;4.82;;;;;;;;;;5064008;28;20194;-76
2021/11/25 07:40:30;;;;;;;6.70;5.40;;;;;;;;;;5057994;28;20569;-76
2021/11/25 07:42:57;;;;;;;4.95;4.55;;;;;;;;;;5069456;28;20206;-76
2021/11/25 07:45:24;;;;;;;5.63;5.07;;;;;;;;;;5067520;28;20213;-76
2021/11/25 07:47:52;;;;;;;9.27;5.03;;;;;;;;;;5062620;28;20201;-76
2021/11/25 07:50:21;;;;;;;11.32;5.70;;;;;;;;;;5051962;28;20199;-75
2021/11/25 07:52:50;;;;;;;8.25;5.43;;;;;;;;;;5056967;28;20195;-75
2021/11/25 07:55:19;;;;;;;7.65;6.75;;;;;;;;;;5058823;28;20210;-75
2021/11/25 07:57:46;;;;;;;8.18;6.32;;;;;;;;;;5066497;28;20198;-75
2021/11/25 08:00:14;;;;;;;7.57;5.50;;;;;;;;;;5057593;28;20226;-77
2021/11/25 08:02:41;;;;;;;7.47;5.90;;;;;;;;;;5052202;28;20822;-74
2021/11/25 08:05:10;;;;;;;7.05;6.45;;;;;;;;;;5056625;28;20233;-75
2021/11/25 08:07:39;;;;;;;5.53;5.00;;;;;;;;;;5061686;28;20201;-75
2021/11/25 08:10:07;;;;;;;7.03;5.78;;;;;;;;;;5051879;28;20673;-76
2021/11/25 08:12:34;;;;;;;5.63;5.13;;;;;;;;;;5053428;28;20190;-76
2021/11/25 08:15:01;;;;;;;6.70;5.88;;;;;;;;;;5063498;28;20206;-75
2021/11/25 08:17:28;;;;;;;6.28;5.10;;;;;;;;;;5054535;28;20585;-76
2021/11/25 08:19:55;;;;;;;6.55;5.63;;;;;;;;;;5060620;28;20203;-75
2021/11/25 08:22:23;;;;;;;7.13;6.40;;;;;;;;;;5055424;28;20215;-75
2021/11/25 08:24:50;;;;;;;5.88;5.38;;;;;;;;;;5053953;28;20195;-75
2021/11/25 08:27:18;;;;;;;14.43;11.25;;;;;;;;;;5055099;28;20206;-76
2021/11/25 08:29:45;;;;;;;16.80;12.32;;;;;;;;;;5058023;28;20199;-76
2021/11/25 08:32:12;;;;;;;34.45;13.55;;;;;;;;;;5066314;28;20234;-77
2021/11/25 08:34:40;;;;;;;15.45;12.57;;;;;;;;;;5051544;28;20191;-76
2021/11/25 08:37:07;;;;;;;15.55;10.85;;;;;;;;;;5060279;28;20198;-76
2021/11/25 08:39:37;;;;;;;17.25;15.52;;;;;;;;;;5058362;28;20284;-76
2021/11/25 08:42:05;;;;;;;17.40;13.32;;;;;;;;;;5051918;28;20215;-75
2021/11/25 08:44:32;;;;;;;29.30;16.20;;;;;;;;;;5068419;28;20445;-75
2021/11/25 08:46:59;;;;;;;41.55;14.70;;;;;;;;;;5060488;28;20203;-75
2021/11/25 08:49:26;;;;;;;45.30;17.15;;;;;;;;;;5059166;28;20190;-75
2021/11/25 08:51:53;;;;;;;27.83;14.73;;;;;;;;;;5052133;28;20589;-73
2021/11/25 08:54:21;;;;;;;19.48;13.18;;;;;;;;;;5057422;28;20666;-75
2021/11/25 08:56:51;;;;;;;18.85;13.20;;;;;;;;;;5054543;28;20265;-76
2021/11/25 08:59:18;;;;;;;16.77;12.20;;;;;;;;;;5052758;28;20221;-75
2021/11/25 09:01:45;;;;;;;20.50;12.27;;;;;;;;;;5058190;28;20218;-75
2021/11/25 09:04:12;;;;;;;19.83;11.48;;;;;;;;;;5063997;28;20191;-75
2021/11/25 09:06:39;;;;;;;19.25;12.25;;;;;;;;;;5050992;28;20201;-76
2021/11/25 09:09:07;;;;;;;18.10;10.90;;;;;;;;;;5051528;28;20191;-75
2021/11/25 09:11:35;;;;;;;16.20;11.15;;;;;;;;;;5057173;28;20197;-75
2021/11/25 09:14:03;;;;;;;16.90;10.50;;;;;;;;;;5052237;28;20302;-76
2021/11/25 09:16:30;;;;;;;16.98;11.55;;;;;;;;;;5059674;28;20205;-75
2021/11/25 09:18:58;;;;;;;16.52;11.02;;;;;;;;;;5052776;28;20222;-75
2021/11/25 09:21:25;;;;;;;14.00;10.95;;;;;;;;;;5055966;28;20572;-76
2021/11/25 09:23:52;;;;;;;15.80;11.38;;;;;;;;;;5054233;28;20605;-76
2021/11/25 09:26:20;;;;;;;14.00;11.30;;;;;;;;;;5056968;28;20260;-76
2021/11/25 09:28:47;;;;;;;18.50;11.32;;;;;;;;;;5053760;28;20297;-76
2021/11/25 09:31:18;;;;;;;15.38;11.45;;;;;;;;;;5058246;28;20202;-77
2021/11/25 09:33:45;;;;;;;12.93;11.38;;;;;;;;;;5054003;28;20282;-77
2021/11/25 09:36:13;;;;;;;11.63;10.45;;;;;;;;;;5055577;28;20199;-76
2021/11/25 09:38:40;;;;;;;12.73;11.43;;;;;;;;;;5058654;28;20560;-75
2021/11/25 09:41:07;;;;;;;15.32;13.00;;;;;;;;;;5060441;28;20194;-76
2021/11/25 09:43:34;;;;;;;14.30;10.30;;;;;;;;;;5052123;28;20206;-76
2021/11/25 09:46:02;;;;;;;16.08;10.55;;;;;;;;;;5056700;28;20190;-76
2021/11/25 09:48:30;;;;;;;18.48;12.90;;;;;;;;;;5061857;28;20413;-76
2021/11/25 09:50:58;;;;;;;15.32;11.90;;;;;;;;;;5056598;28;20202;-76
2021/11/25 09:53:26;;;;;;;13.45;10.80;;;;;;;;;;5054929;28;20195;-76
2021/11/25 09:55:54;;;;;;;13.52;12.18;;;;;;;;;;5059020;28;20206;-75
2021/11/25 09:58:22;;;;;;;12.85;11.20;;;;;;;;;;5065291;28;20202;-76
2021/11/25 10:00:50;;;;;;;11.30;10.20;;;;;;;;;;5065761;28;20217;-75
2021/11/25 10:03:18;;;;;;;11.98;10.65;;;;;;;;;;5058461;28;20581;-75
2021/11/25 10:05:48;;;;;;;13.95;10.23;;;;;;;;;;5059979;28;20195;-75
2021/11/25 10:08:23;;;;;;;11.52;9.90;;;;;;;;;;5062403;28;20194;-76
2021/11/25 10:10:57;;;;;;;12.02;10.80;;;;;;;;;;5059481;28;20198;-76
2021/11/25 10:13:26;;;;;;;15.00;9.18;;;;;;;;;;5054255;28;20191;-76
2021/11/25 10:15:58;;;;;;;10.48;9.35;;;;;;;;;;5058801;28;20198;-76
2021/11/25 10:18:25;;;;;;;14.15;9.93;;;;;;;;;;5059156;28;20202;-76
2021/11/25 10:20:54;;;;;;;11.77;9.90;;;;;;;;;;5072262;28;20669;-75
2021/11/25 10:23:22;;;;;;;11.70;10.35;;;;;;;;;;5059396;28;20577;-76
2021/11/25 10:25:51;;;;;;;10.27;9.18;;;;;;;;;;5058170;28;20677;-76
2021/11/25 10:28:19;;;;;;;12.18;10.90;;;;;;;;;;5055205;28;20636;-76
2021/11/25 10:30:47;;;;;;;12.10;10.50;;;;;;;;;;5054326;28;20654;-76
2021/11/25 10:33:14;;;;;;;12.70;9.15;;;;;;;;;;5062233;28;20604;-76
2021/11/25 10:35:52;;;;;;;11.75;9.90;;;;;;;;;;5060192;28;20206;-76
2021/11/25 10:38:34;;;;;;;12.20;10.15;;;;;;;;;;5063440;28;20202;-75
2021/11/25 10:41:12;;;;;;;9.15;8.07;;;;;;;;;;5054790;28;20199;-75
2021/11/25 10:43:39;;;;;;;10.82;9.73;;;;;;;;;;5067226;28;20218;-76
2021/11/25 10:46:07;;;;;;;30.08;10.48;;;;;;;;;;5055982;28;20191;-76
2021/11/25 10:48:37;;;;;;;10.80;9.70;;;;;;;;;;5058808;28;20754;-76
2021/11/25 10:51:19;;;;;;;13.82;8.77;;;;;;;;;;5059159;28;20844;-76
2021/11/25 10:54:01;;;;;;;12.10;9.00;;;;;;;;;;5059149;28;20661;-76
2021/11/25 10:56:36;;;;;;;13.25;9.85;;;;;;;;;;5055173;28;20206;-76
2021/11/25 10:59:03;;;;;;;15.85;9.40;;;;;;;;;;5065296;28;20240;-76
2021/11/25 11:01:34;;;;;;;10.55;9.55;;;;;;;;;;5057360;28;20199;-76
2021/11/25 11:04:01;;;;;;;11.07;9.88;;;;;;;;;;5058725;28;20202;-76
2021/11/25 11:06:32;;;;;;;12.70;9.20;;;;;;;;;;5053396;28;20662;-76
2021/11/25 11:08:59;;;;;;;11.40;9.52;;;;;;;;;;5059202;28;20203;-76
2021/11/25 11:11:27;;;;;;;12.77;10.35;;;;;;;;;;5062739;28;20194;-76
2021/11/25 11:14:17;;;;;;;9.23;8.23;;;;;;;;;;5069102;28;20276;-76
2021/11/25 11:16:49;;;;;;;11.65;9.82;;;;;;;;;;5058786;28;20666;-76
2021/11/25 11:19:17;;;;;;;11.77;8.60;;;;;;;;;;5067570;28;20610;-76
2021/11/25 11:21:45;;;;;;;15.13;8.30;;;;;;;;;;5065715;28;20202;-74
2021/11/25 11:24:13;;;;;;;8.98;8.07;;;;;;;;;;5053636;28;20555;-75
2021/11/25 11:26:42;;;;;;;9.32;8.43;;;;;;;;;;5057613;28;20213;-74
2021/11/25 11:29:11;;;;;;;11.32;9.07;;;;;;;;;;5055960;28;20202;-75
2021/11/25 11:31:39;;;;;;;10.85;9.30;;;;;;;;;;5061801;28;20294;-75
2021/11/25 11:34:09;;;;;;;11.13;9.55;;;;;;;;;;5053421;28;20198;-75
2021/11/25 11:36:39;;;;;;;13.25;9.40;;;;;;;;;;5062215;28;20654;-74
2021/11/25 11:39:06;;;;;;;12.35;10.43;;;;;;;;;;5058487;28;20195;-75
2021/11/25 11:41:33;;;;;;;13.00;10.73;;;;;;;;;;5066258;28;20656;-75
2021/11/25 11:44:02;;;;;;;13.95;10.55;;;;;;;;;;5071380;28;20217;-75
2021/11/25 11:46:32;;;;;;;11.23;10.00;;;;;;;;;;5062029;28;20293;-75
2021/11/25 11:49:00;;;;;;;11.50;9.75;;;;;;;;;;5061308;28;20404;-76
2021/11/25 11:51:27;;;;;;;12.40;9.80;;;;;;;;;;5052012;28;20199;-75
2021/11/25 11:53:56;;;;;;;9.70;8.68;;;;;;;;;;5051701;28;20593;-75
2021/11/25 11:56:34;;;;;;;11.50;9.52;;;;;;;;;;5057051;28;20217;-75
2021/11/25 11:59:01;;;;;;;11.82;10.50;;;;;;;;;;5057294;28;20218;-75
2021/11/25 12:01:29;;;;;;;12.45;10.55;;;;;;;;;;5054033;28;20199;-75
2021/11/25 12:03:58;;;;;;;14.05;11.02;;;;;;;;;;5057663;28;20214;-75
2021/11/25 12:06:37;;;;;;;11.75;8.77;;;;;;;;;;5063050;28;20198;-76
2021/11/25 12:09:05;;;;;;;14.23;10.38;;;;;;;;;;5051901;28;20202;-75
2021/11/25 12:11:39;;;;;;;14.23;10.02;;;;;;;;;;5055651;28;20206;-75
2021/11/25 12:14:14;;;;;;;13.15;11.75;;;;;;;;;;5052857;28;20197;-75
2021/11/25 12:16:46;;;;;;;11.65;10.07;;;;;;;;;;5064902;28;20201;-76
2021/11/25 12:19:15;;;;;;;13.55;10.35;;;;;;;;;;5053152;28;20573;-77
2021/11/25 12:21:44;;;;;;;15.52;11.32;;;;;;;;;;5058995;28;20194;-75
2021/11/25 12:24:13;;;;;;;12.40;9.93;;;;;;;;;;5064802;28;20241;-75
2021/11/25 12:27:00;;;;;;;11.13;9.07;;;;;;;;;;5058486;28;20190;-75
2021/11/25 12:29:34;;;;;;;12.50;9.90;;;;;;;;;;5057262;28;20198;-75
2021/11/25 12:32:23;;;;;;;13.77;10.48;;;;;;;;;;5057737;28;20202;-75
2021/11/25 12:34:52;;;;;;;13.88;11.43;;;;;;;;;;5064420;28;20309;-74
2021/11/25 12:37:33;;;;;;;11.25;9.65;;;;;;;;;;5065923;28;20202;-76
2021/11/25 12:40:01;;;;;;;13.35;10.10;;;;;;;;;;5052650;28;20198;-74
2021/11/25 12:42:28;;;;;;;12.25;10.60;;;;;;;;;;5059273;28;20217;-75
2021/11/25 12:44:55;;;;;;;12.05;10.02;;;;;;;;;;5063607;28;20194;-75
2021/11/25 12:47:22;;;;;;;11.70;10.30;;;;;;;;;;5054308;28;20202;-76
2021/11/25 12:49:49;;;;;;;16.75;10.70;;;;;;;;;;5062443;28;20195;-75
2021/11/25 12:52:29;;;;;;;14.52;10.50;;;;;;;;;;5051448;28;20198;-77
2021/11/25 12:55:08;;;;;;;11.57;9.25;;;;;;;;;;5059447;28;20585;-76
2021/11/25 12:57:49;;;;;;;11.60;9.88;;;;;;;;;;5060764;28;20198;-76
2021/11/25 13:00:18;;;;;;;12.90;10.35;;;;;;;;;;5065415;28;20218;-77
2021/11/25 13:02:45;;;;;;;13.27;10.55;;;;;;;;;;5053056;28;20632;-77
2021/11/25 13:05:12;;;;;;;13.57;10.20;;;;;;;;;;5067744;28;20227;-78
2021/11/25 13:07:48;;;;;;;17.45;11.40;;;;;;;;;;5068051;28;20673;-76
2021/11/25 13:10:26;;;;;;;14.45;11.50;;;;;;;;;;5053356;28;20201;-76
2021/11/25 13:12:53;;;;;;;17.08;11.82;;;;;;;;;;5066117;28;20225;-75
2021/11/25 13:15:20;;;;;;;12.65;9.88;;;;;;;;;;5056310;28;20197;-75
2021/11/25 13:17:57;;;;;;;13.73;11.13;;;;;;;;;;5055290;28;20194;-75
2021/11/25 13:20:43;;;;;;;22.75;17.50;;;;;;;;;;5056374;28;20193;-75
2021/11/25 13:23:12;;;;;;;22.40;18.33;;;;;;;;;;5055513;28;20489;-75
2021/11/25 13:25:50;;;;;;;27.30;19.65;;;;;;;;;;5065951;28;20462;-74
2021/11/25 13:28:21;;;;;;;26.17;18.20;;;;;;;;;;5063855;28;20205;-75
2021/11/25 13:30:48;;;;;;;21.90;18.05;;;;;;;;;;5061531;28;20202;-75
2021/11/25 13:33:15;;;;;;;24.55;18.13;;;;;;;;;;5058288;28;20650;-75
2021/11/25 13:35:42;;;;;;;20.20;16.30;;;;;;;;;;5068580;28;20190;-75
2021/11/25 13:38:09;;;;;;;19.40;16.20;;;;;;;;;;5067908;28;20206;-75
2021/11/25 13:40:38;;;;;;;21.45;16.73;;;;;;;;;;5064704;28;20197;-76
2021/11/25 13:43:09;;;;;;;21.92;16.98;;;;;;;;;;5063910;28;20686;-76
2021/11/25 13:45:36;;;;;;;19.83;15.88;;;;;;;;;;5059525;28;20720;-76
2021/11/25 13:48:03;;;;;;;16.73;14.98;;;;;;;;;;5059360;28;20554;-75
2021/11/25 13:50:32;;;;;;;20.55;16.42;;;;;;;;;;5053960;28;20584;-76
2021/11/25 13:53:00;;;;;;;21.48;16.58;;;;;;;;;;5054038;28;20215;-74
2021/11/25 13:55:28;;;;;;;25.98;21.05;;;;;;;;;;5058960;28;20290;-77
2021/11/25 13:58:04;;;;;;;23.60;20.02;;;;;;;;;;5059448;28;20207;-77
2021/11/25 14:00:33;;;;;;;24.35;20.23;;;;;;;;;;5054544;28;20665;-76
2021/11/25 14:03:06;;;;;;;28.95;21.95;;;;;;;;;;5066678;28;20218;-76
2021/11/25 14:05:42;;;;;;;24.40;20.65;;;;;;;;;;5066915;28;20257;-76
2021/11/25 14:08:13;;;;;;;25.88;17.95;;;;;;;;;;5058846;28;20201;-77
2021/11/25 14:10:41;;;;;;;21.98;17.65;;;;;;;;;;5054296;28;20286;-77
2021/11/25 14:13:09;;;;;;;25.17;19.50;;;;;;;;;;5062268;28;20557;-76
2021/11/25 14:15:38;;;;;;;21.20;17.58;;;;;;;;;;5068150;28;20205;-78
2021/11/25 14:18:08;;;;;;;20.90;17.80;;;;;;;;;;5058855;28;20288;-79
2021/11/25 14:20:36;;;;;;;23.33;17.67;;;;;;;;;;5064400;28;20218;-77
2021/11/25 14:23:19;;;;;;;22.73;16.02;;;;;;;;;;5060780;28;20268;-78
2021/11/25 14:25:49;;;;;;;21.75;17.63;;;;;;;;;;5054274;28;20284;-77
2021/11/25 14:31:08;;;;;;;19.08;16.10;;;;;;;;;;5068039;28;20193;-78
2021/11/25 14:33:42;;;;;;;22.98;17.17;;;;;;;;;;5054577;28;20206;-77
2021/11/25 14:36:18;;;;;;;20.50;16.02;;;;;;;;;;5067301;28;20203;-78
2021/11/25 14:38:47;;;;;;;21.75;15.65;;;;;;;;;;5061950;28;20210;-77
2021/11/25 14:41:14;;;;;;;20.58;17.23;;;;;;;;;;5053685;28;20227;-77
2021/11/25 14:43:43;;;;;;;20.45;16.58;;;;;;;;;;5054558;28;20242;-77
2021/11/25 14:46:16;;;;;;;17.50;14.63;;;;;;;;;;5060328;28;20195;-77